createdAt,value
2022-08-27T00:00:18.458Z,97512.94
2022-08-27T00:02:45.674Z,97512.62
2022-08-27T00:05:14.667Z,97513.91
2022-08-27T00:07:42.748Z,97513.06
2022-08-27T00:10:13.589Z,97514.31
2022-08-27T00:12:41.438Z,97517.28
2022-08-27T00:15:09.478Z,97518.00
2022-08-27T00:17:38.811Z,97510.13
2022-08-27T00:20:07.486Z,97519.84
2022-08-27T00:22:34.632Z,97520.66
2022-08-27T00:25:01.740Z,97518.09
2022-08-27T00:27:28.667Z,97514.25
2022-08-27T00:29:55.757Z,97513.91
2022-08-27T00:32:22.786Z,97517.00
2022-08-27T00:34:49.758Z,97515.34
2022-08-27T00:37:16.676Z,97517.56
2022-08-27T00:39:43.897Z,97518.13
2022-08-27T00:42:10.938Z,97519.06
2022-08-27T00:44:39.014Z,97511.84
2022-08-27T00:47:11.830Z,97507.22
2022-08-27T00:49:47.970Z,97514.06
2022-08-27T00:52:23.793Z,97517.75
2022-08-27T00:55:06.980Z,97515.34
2022-08-27T00:57:36.659Z,97515.19
2022-08-27T01:00:06.715Z,97515.72
2022-08-27T01:02:33.687Z,97520.12
2022-08-27T01:05:07.318Z,97516.03
2022-08-27T01:07:38.705Z,97518.34
2022-08-27T01:10:09.319Z,97518.81
2022-08-27T01:12:36.830Z,97518.50
2022-08-27T01:15:10.076Z,97513.16
2022-08-27T01:17:39.991Z,97512.03
2022-08-27T01:20:12.766Z,97523.87
2022-08-27T01:23:24.659Z,97522.34
2022-08-27T01:25:52.090Z,97517.59
2022-08-27T01:28:22.793Z,97512.78
2022-08-27T01:30:50.594Z,97516.00
2022-08-27T01:33:19.763Z,97519.97
2022-08-27T01:35:49.333Z,97517.53
2022-08-27T01:38:30.456Z,97515.19
2022-08-27T01:41:02.293Z,97513.12
2022-08-27T01:43:30.293Z,97523.22
2022-08-27T01:45:57.205Z,97514.03
2022-08-27T01:48:24.375Z,97510.97
2022-08-27T01:50:51.366Z,97511.81
2022-08-27T01:53:21.500Z,97515.28
2022-08-27T01:55:50.095Z,97512.34
2022-08-27T01:58:18.775Z,97519.78
2022-08-27T02:00:47.964Z,97522.28
2022-08-27T02:03:19.333Z,97515.06
2022-08-27T02:05:47.749Z,97518.16
2022-08-27T02:08:16.187Z,97510.16
2022-08-27T02:10:45.295Z,97522.44
2022-08-27T02:13:13.443Z,97520.00
2022-08-27T02:15:42.041Z,97526.53
2022-08-27T02:18:10.172Z,97516.28
2022-08-27T02:20:37.629Z,97512.22
2022-08-27T02:23:05.185Z,97513.25
2022-08-27T02:25:32.564Z,97515.22
2022-08-27T02:28:00.475Z,97509.75
2022-08-27T02:30:28.894Z,97509.34
2022-08-27T02:32:56.093Z,97507.56
2022-08-27T02:35:24.504Z,97504.41
2022-08-27T02:37:51.697Z,97502.50
2022-08-27T02:40:20.983Z,97503.38
2022-08-27T02:42:48.148Z,97508.22
2022-08-27T02:45:16.036Z,97504.91
2022-08-27T02:47:42.972Z,97499.94
2022-08-27T02:50:10.409Z,97504.47
2022-08-27T02:52:37.363Z,97513.44
2022-08-27T02:55:05.525Z,97513.53
2022-08-27T02:57:36.438Z,97518.94
2022-08-27T03:00:10.696Z,97521.88
2022-08-27T03:02:37.934Z,97519.25
2022-08-27T03:05:06.747Z,97514.59
2022-08-27T03:07:33.716Z,97514.69
2022-08-27T03:10:00.623Z,97516.91
2022-08-27T03:12:27.604Z,97516.59
2022-08-27T03:14:54.534Z,97516.50
2022-08-27T03:17:39.949Z,97508.69
2022-08-27T03:20:08.465Z,97514.66
2022-08-27T03:22:35.494Z,97518.38
2022-08-27T03:25:04.031Z,97511.19
2022-08-27T03:27:30.942Z,97516.91
2022-08-27T03:30:00.723Z,97506.34
2022-08-27T03:32:30.521Z,97511.16
2022-08-27T03:34:58.956Z,97512.22
2022-08-27T03:37:26.636Z,97509.09
2022-08-27T03:39:53.686Z,97503.38
2022-08-27T03:42:21.420Z,97501.16
2022-08-27T03:44:48.413Z,97505.09
2022-08-27T03:47:15.811Z,97518.31
2022-08-27T03:49:42.782Z,97516.25
2022-08-27T03:52:10.315Z,97512.47
2022-08-27T03:54:38.404Z,97511.66
2022-08-27T03:57:05.679Z,97511.63
2022-08-27T03:59:33.398Z,97518.13
2022-08-27T04:02:01.480Z,97514.97
2022-08-27T04:04:28.683Z,97520.28
2022-08-27T04:06:56.134Z,97523.37
2022-08-27T04:09:26.329Z,97518.63
2022-08-27T04:11:53.669Z,97519.94
2022-08-27T04:14:26.638Z,97523.94
2022-08-27T04:16:56.329Z,97525.47
2022-08-27T04:19:27.652Z,97531.72
2022-08-27T04:22:00.352Z,97530.50
2022-08-27T04:24:27.626Z,97530.53
2022-08-27T04:26:54.591Z,97535.31
2022-08-27T04:29:21.488Z,97534.25
2022-08-27T04:31:48.612Z,97530.75
2022-08-27T04:34:17.214Z,97530.38
2022-08-27T04:36:44.190Z,97537.34
2022-08-27T04:39:11.096Z,97528.19
2022-08-27T04:41:38.154Z,97528.97
2022-08-27T04:44:08.525Z,97535.81
2022-08-27T04:46:37.890Z,97529.59
2022-08-27T04:49:10.858Z,97520.19
2022-08-27T04:51:39.932Z,97532.41
2022-08-27T04:54:07.356Z,97523.72
2022-08-27T04:56:35.055Z,97518.97
2022-08-27T04:59:06.500Z,97526.28
2022-08-27T05:01:33.517Z,97528.38
2022-08-27T05:04:00.964Z,97531.03
2022-08-27T05:06:28.510Z,97535.88
2022-08-27T05:08:55.922Z,97543.75
2022-08-27T05:11:27.275Z,97548.56
2022-08-27T05:13:54.321Z,97539.87
2022-08-27T05:16:23.076Z,97550.44
2022-08-27T05:18:51.097Z,97553.22
2022-08-27T05:21:20.339Z,97552.63
2022-08-27T05:23:47.814Z,97557.56
2022-08-27T05:26:15.281Z,97560.66
2022-08-27T05:28:42.577Z,97559.81
2022-08-27T05:31:11.726Z,97546.44
2022-08-27T05:33:39.818Z,97562.81
2022-08-27T05:36:07.607Z,97555.88
2022-08-27T05:38:34.912Z,97553.44
2022-08-27T05:41:12.624Z,97551.81
2022-08-27T05:43:41.557Z,97558.91
2022-08-27T05:46:14.470Z,97561.87
2022-08-27T05:48:42.239Z,97557.50
2022-08-27T05:51:22.573Z,97561.72
2022-08-27T05:53:59.302Z,97567.56
2022-08-27T05:56:28.503Z,97561.06
2022-08-27T05:59:14.661Z,97553.47
2022-08-27T06:01:45.756Z,97553.31
2022-08-27T06:04:17.812Z,97543.50
2022-08-27T06:06:45.569Z,97551.91
2022-08-27T06:09:14.534Z,97546.31
2022-08-27T06:11:41.953Z,97544.63
2022-08-27T06:14:09.533Z,97548.38
2022-08-27T06:16:38.225Z,97548.66
2022-08-27T06:19:06.202Z,97550.16
2022-08-27T06:21:33.664Z,97554.37
2022-08-27T06:24:00.921Z,97559.88
2022-08-27T06:26:28.169Z,97552.88
2022-08-27T06:28:55.497Z,97558.16
2022-08-27T06:31:25.101Z,97561.03
2022-08-27T06:33:53.687Z,97564.50
2022-08-27T06:36:25.743Z,97565.59
2022-08-27T06:38:54.696Z,97564.44
2022-08-27T06:41:24.166Z,97563.19
2022-08-27T06:43:52.090Z,97562.28
2022-08-27T06:46:22.181Z,97567.91
2022-08-27T06:48:53.168Z,97567.63
2022-08-27T06:51:26.583Z,97564.09
2022-08-27T06:54:00.978Z,97573.53
2022-08-27T06:56:28.771Z,97575.56
2022-08-27T06:58:57.503Z,97565.72
2022-08-27T07:01:28.272Z,97569.59
2022-08-27T07:03:58.716Z,97567.63
2022-08-27T07:06:27.509Z,97567.13
2022-08-27T07:08:54.866Z,97578.09
2022-08-27T07:11:21.983Z,97564.59
2022-08-27T07:13:49.506Z,97570.41
2022-08-27T07:16:23.179Z,97576.84
2022-08-27T07:18:56.485Z,97573.41
2022-08-27T07:21:24.053Z,97580.03
2022-08-27T07:23:52.883Z,97580.28
2022-08-27T07:26:21.082Z,97582.75
2022-08-27T07:28:50.209Z,97587.31
2022-08-27T07:31:19.540Z,97599.44
2022-08-27T07:33:52.607Z,97588.00
2022-08-27T07:36:21.168Z,97590.00
2022-08-27T07:38:53.491Z,97592.50
2022-08-27T07:41:30.600Z,97586.31
2022-08-27T07:44:16.806Z,97591.53
2022-08-27T07:46:47.992Z,97588.03
2022-08-27T07:49:15.991Z,97593.16
2022-08-27T07:51:42.995Z,97598.91
2022-08-27T07:54:09.938Z,97597.25
2022-08-27T07:56:36.889Z,97594.16
2022-08-27T07:59:03.900Z,97596.59
2022-08-27T08:01:30.872Z,97592.56
2022-08-27T08:03:57.877Z,97593.72
2022-08-27T08:06:24.867Z,97596.84
2022-08-27T08:08:52.207Z,97586.53
2022-08-27T08:11:20.600Z,97589.53
2022-08-27T08:13:47.921Z,97593.91
2022-08-27T08:16:15.009Z,97601.56
2022-08-27T08:18:41.916Z,97597.25
2022-08-27T08:21:12.109Z,97603.34
2022-08-27T08:23:39.716Z,97603.28
2022-08-27T08:26:07.137Z,97602.34
2022-08-27T08:28:34.448Z,97608.66
2022-08-27T08:31:01.736Z,97605.84
2022-08-27T08:33:29.341Z,97602.25
2022-08-27T08:36:06.513Z,97602.28
2022-08-27T08:38:33.561Z,97600.81
2022-08-27T08:41:00.628Z,97610.03
2022-08-27T08:43:40.211Z,97606.97
2022-08-27T08:46:12.333Z,97606.94
2022-08-27T08:48:42.677Z,97610.53
2022-08-27T08:51:37.072Z,97607.03
2022-08-27T08:54:06.346Z,97607.34
2022-08-27T08:57:00.518Z,97603.47
2022-08-27T08:59:34.966Z,97599.38
2022-08-27T09:02:02.010Z,97610.31
2022-08-27T09:04:30.101Z,97609.44
2022-08-27T09:07:35.634Z,97606.25
2022-08-27T09:10:21.529Z,97603.62
2022-08-27T09:12:48.644Z,97603.34
2022-08-27T09:15:27.259Z,97609.72
2022-08-27T09:18:05.338Z,97605.69
2022-08-27T09:20:32.328Z,97600.44
2022-08-27T09:23:07.482Z,97597.56
2022-08-27T09:25:37.838Z,97590.56
2022-08-27T09:28:34.571Z,97599.91
2022-08-27T09:31:07.527Z,97590.97
2022-08-27T09:33:54.815Z,97592.87
2022-08-27T09:36:23.736Z,97583.56
2022-08-27T09:39:04.329Z,97584.28
2022-08-27T09:41:36.173Z,97587.16
2022-08-27T09:44:10.287Z,97590.03
2022-08-27T09:46:37.294Z,97591.69
2022-08-27T09:49:12.609Z,97599.56
2022-08-27T09:51:43.291Z,97584.09
2022-08-27T09:54:11.182Z,97594.63
2022-08-27T09:56:40.687Z,97587.44
2022-08-27T09:59:27.021Z,97587.47
2022-08-27T10:01:55.943Z,97594.53
2022-08-27T10:04:50.932Z,97592.16
2022-08-27T10:07:43.099Z,97583.72
2022-08-27T10:10:18.126Z,97587.69
2022-08-27T10:12:58.729Z,97588.50
2022-08-27T10:15:30.508Z,97571.25
2022-08-27T10:18:04.567Z,97578.38
2022-08-27T10:20:42.472Z,97577.19
2022-08-27T10:23:24.969Z,97591.31
2022-08-27T10:26:01.793Z,97584.41
2022-08-27T10:28:40.724Z,97588.75
2022-08-27T10:31:17.719Z,97585.59
2022-08-27T10:33:50.696Z,97576.59
2022-08-27T10:36:42.181Z,97580.75
2022-08-27T10:39:12.139Z,97584.78
2022-08-27T10:42:26.485Z,97583.84
2022-08-27T10:45:04.644Z,97578.38
2022-08-27T10:47:40.429Z,97576.66
2022-08-27T10:50:24.492Z,97583.47
2022-08-27T10:52:55.978Z,97573.19
2022-08-27T10:55:27.159Z,97583.72
2022-08-27T10:58:16.172Z,97577.56
2022-08-27T11:00:59.667Z,97566.41
2022-08-27T11:03:41.250Z,97568.84
2022-08-27T11:06:24.285Z,97573.88
2022-08-27T11:08:56.030Z,97573.41
2022-08-27T11:12:12.859Z,97573.09
2022-08-27T11:14:39.036Z,97579.59
2022-08-27T11:17:10.079Z,97575.84
2022-08-27T11:19:42.835Z,97568.50
2022-08-27T11:22:26.056Z,97572.97
2022-08-27T11:25:09.754Z,97564.38
2022-08-27T11:27:37.643Z,97565.06
2022-08-27T11:30:08.403Z,97554.53
2022-08-27T11:32:35.246Z,97554.75
2022-08-27T11:35:10.097Z,97564.41
2022-08-27T11:37:46.766Z,97561.13
2022-08-27T11:40:30.890Z,97567.09
2022-08-27T11:43:04.109Z,97549.06
2022-08-27T11:45:40.604Z,97542.50
2022-08-27T11:48:25.977Z,97535.22
2022-08-27T11:50:58.881Z,97537.88
2022-08-27T11:53:34.267Z,97564.28
2022-08-27T11:56:31.199Z,97558.06
2022-08-27T11:59:27.449Z,97557.44
2022-08-27T12:01:56.851Z,97557.81
2022-08-27T12:04:42.716Z,97549.47
2022-08-27T12:07:17.559Z,97545.72
2022-08-27T12:09:56.799Z,97543.97
2022-08-27T12:13:01.223Z,97549.72
2022-08-27T12:15:34.164Z,97547.44
2022-08-27T12:18:10.450Z,97544.03
2022-08-27T12:21:12.244Z,97537.50
2022-08-27T12:23:45.296Z,97537.22
2022-08-27T12:26:33.585Z,97541.97
2022-08-27T12:29:39.312Z,97548.78
2022-08-27T12:32:32.412Z,97555.72
2022-08-27T12:35:19.749Z,97556.69
2022-08-27T12:38:03.272Z,97554.66
2022-08-27T12:40:46.563Z,97557.97
2022-08-27T12:43:27.763Z,97568.13
2022-08-27T12:46:01.117Z,97559.66
2022-08-27T12:48:31.877Z,97565.06
2022-08-27T12:51:01.995Z,97545.53
2022-08-27T12:53:43.670Z,97534.91
2022-08-27T12:56:20.576Z,97543.12
2022-08-27T12:59:08.168Z,97531.09
2022-08-27T13:02:12.186Z,97533.94
2022-08-27T13:04:40.420Z,97538.87
2022-08-27T13:07:07.327Z,97534.66
2022-08-27T13:09:36.993Z,97532.44
2022-08-27T13:12:07.751Z,97530.16
2022-08-27T13:14:40.290Z,97521.63
2022-08-27T13:17:15.048Z,97513.88
2022-08-27T13:19:54.014Z,97520.69
2022-08-27T13:22:26.107Z,97521.81
2022-08-27T13:24:55.414Z,97524.94
2022-08-27T13:27:31.049Z,97519.41
2022-08-27T13:30:01.338Z,97510.19
2022-08-27T13:32:29.085Z,97516.22
2022-08-27T13:34:56.258Z,97510.81
2022-08-27T13:37:33.624Z,97519.69
2022-08-27T13:40:00.814Z,97526.56
2022-08-27T13:42:28.079Z,97520.69
2022-08-27T13:45:02.756Z,97523.03
2022-08-27T13:47:30.804Z,97518.25
2022-08-27T13:50:14.466Z,97507.81
2022-08-27T13:53:01.804Z,97510.72
2022-08-27T13:55:29.108Z,97514.78
2022-08-27T13:57:56.645Z,97519.31
2022-08-27T14:00:28.383Z,97521.50
2022-08-27T14:02:56.628Z,97507.75
2022-08-27T14:05:23.624Z,97509.91
2022-08-27T14:07:55.416Z,97514.25
2022-08-27T14:10:37.414Z,97506.53
2022-08-27T14:13:10.790Z,97516.69
2022-08-27T14:15:44.077Z,97511.63
2022-08-27T14:18:37.091Z,97521.25
2022-08-27T14:21:09.560Z,97515.22
2022-08-27T14:23:36.551Z,97517.44
2022-08-27T14:26:03.497Z,97515.59
2022-08-27T14:28:31.780Z,97520.59
2022-08-27T14:30:58.950Z,97514.31
2022-08-27T14:33:25.882Z,97512.44
2022-08-27T14:35:52.792Z,97516.00
2022-08-27T14:38:23.482Z,97510.66
2022-08-27T14:40:54.687Z,97517.44
2022-08-27T14:43:23.110Z,97524.41
2022-08-27T14:45:50.529Z,97526.81
2022-08-27T14:48:20.957Z,97521.81
2022-08-27T14:50:55.881Z,97516.97
2022-08-27T14:53:22.932Z,97519.44
2022-08-27T14:55:51.504Z,97520.59
2022-08-27T14:58:18.935Z,97526.91
2022-08-27T15:00:45.991Z,97520.12
2022-08-27T15:03:13.374Z,97531.47
2022-08-27T15:05:40.409Z,97530.47
2022-08-27T15:08:13.277Z,97529.56
2022-08-27T15:10:40.641Z,97524.91
2022-08-27T15:13:09.644Z,97523.41
2022-08-27T15:15:36.770Z,97530.87
2022-08-27T15:18:04.170Z,97533.34
2022-08-27T15:20:31.292Z,97524.44
2022-08-27T15:22:58.973Z,97512.72
2022-08-27T15:25:25.952Z,97512.69
2022-08-27T15:27:54.182Z,97514.47
2022-08-27T15:30:25.493Z,97522.78
2022-08-27T15:32:52.506Z,97527.03
2022-08-27T15:35:23.227Z,97519.56
2022-08-27T15:37:50.238Z,97519.78
2022-08-27T15:40:18.234Z,97528.16
2022-08-27T15:42:46.399Z,97519.19
2022-08-27T15:45:14.400Z,97509.78
2022-08-27T15:47:41.484Z,97523.47
2022-08-27T15:50:08.867Z,97527.84
2022-08-27T15:52:41.319Z,97526.66
2022-08-27T15:55:30.230Z,97531.91
2022-08-27T15:57:57.239Z,97521.38
2022-08-27T16:00:25.134Z,97525.53
2022-08-27T16:02:52.632Z,97521.06
2022-08-27T16:05:20.958Z,97518.97
2022-08-27T16:07:48.093Z,97517.69
2022-08-27T16:10:15.581Z,97518.00
2022-08-27T16:12:42.491Z,97513.75
2022-08-27T16:15:09.879Z,97518.97
2022-08-27T16:17:37.161Z,97511.31
2022-08-27T16:20:05.071Z,97512.91
2022-08-27T16:22:31.994Z,97515.03
2022-08-27T16:24:58.935Z,97510.56
2022-08-27T16:27:25.841Z,97502.22
2022-08-27T16:29:52.766Z,97512.03
2022-08-27T16:32:19.983Z,97509.41
2022-08-27T16:34:55.414Z,97503.78
2022-08-27T16:37:26.437Z,97505.66
2022-08-27T16:39:53.660Z,97505.28
2022-08-27T16:42:21.065Z,97512.56
2022-08-27T16:44:48.407Z,97509.88
2022-08-27T16:47:15.487Z,97520.25
2022-08-27T16:50:00.987Z,97523.78
2022-08-27T16:52:27.937Z,97538.97
2022-08-27T16:54:56.968Z,97539.44
2022-08-27T16:57:24.088Z,97536.78
2022-08-27T16:59:51.402Z,97537.75
2022-08-27T17:02:38.197Z,97548.72
2022-08-27T17:05:24.000Z,97556.06
2022-08-27T17:07:52.019Z,97559.44
2022-08-27T17:10:19.281Z,97570.59
2022-08-27T17:12:47.345Z,97576.28
2022-08-27T17:15:18.750Z,97576.47
2022-08-27T17:17:46.166Z,97578.03
2022-08-27T17:20:15.319Z,97571.88
2022-08-27T17:22:43.003Z,97579.00
2022-08-27T17:25:10.750Z,97582.03
2022-08-27T17:27:37.780Z,97583.78
2022-08-27T17:30:05.842Z,97587.97
2022-08-27T17:32:37.572Z,97590.34
2022-08-27T17:35:07.037Z,97595.84
2022-08-27T17:37:34.684Z,97600.16
2022-08-27T17:40:02.392Z,97591.50
2022-08-27T17:42:29.819Z,97597.38
2022-08-27T17:44:57.091Z,97587.56
2022-08-27T17:47:25.112Z,97584.41
2022-08-27T17:49:53.818Z,97583.19
2022-08-27T17:52:21.284Z,97588.75
2022-08-27T17:54:54.373Z,97576.34
2022-08-27T17:57:30.095Z,97588.75
2022-08-27T18:00:10.631Z,97586.59
2022-08-27T18:02:40.186Z,97582.22
2022-08-27T18:05:10.222Z,97586.59
2022-08-27T18:07:39.914Z,97579.31
2022-08-27T18:10:08.365Z,97578.03
2022-08-27T18:12:35.763Z,97580.47
2022-08-27T18:15:09.052Z,97579.25
2022-08-27T18:17:37.173Z,97582.56
2022-08-27T18:20:08.783Z,97579.16
2022-08-27T18:22:40.645Z,97575.19
2022-08-27T18:25:08.436Z,97573.50
2022-08-27T18:27:36.662Z,97584.22
2022-08-27T18:30:04.979Z,97572.47
2022-08-27T18:32:31.913Z,97581.78
2022-08-27T18:35:02.464Z,97587.16
2022-08-27T18:37:29.406Z,97592.00
2022-08-27T18:39:56.425Z,97588.16
2022-08-27T18:42:23.456Z,97587.59
2022-08-27T18:44:50.409Z,97590.94
2022-08-27T18:47:17.355Z,97589.88
2022-08-27T18:49:44.339Z,97605.25
2022-08-27T18:52:13.649Z,97605.78
2022-08-27T18:54:41.849Z,97609.75
2022-08-27T18:57:08.751Z,97614.66
2022-08-27T18:59:35.828Z,97613.47
2022-08-27T19:02:02.904Z,97618.56
2022-08-27T19:04:32.342Z,97612.62
2022-08-27T19:06:59.333Z,97620.72
2022-08-27T19:09:26.424Z,97617.06
2022-08-27T19:11:53.336Z,97616.88
2022-08-27T19:14:20.260Z,97601.91
2022-08-27T19:16:50.740Z,97604.38
2022-08-27T19:19:18.058Z,97607.75
2022-08-27T19:21:50.660Z,97605.94
2022-08-27T19:24:19.421Z,97606.38
2022-08-27T19:26:46.878Z,97603.88
2022-08-27T19:29:14.666Z,97604.62
2022-08-27T19:31:41.605Z,97611.19
2022-08-27T19:34:09.262Z,97622.13
2022-08-27T19:36:39.558Z,97617.88
2022-08-27T19:39:06.961Z,97631.03
2022-08-27T19:41:34.098Z,97624.19
2022-08-27T19:44:01.060Z,97629.25
2022-08-27T19:46:29.156Z,97635.84
2022-08-27T19:48:57.825Z,97628.66
2022-08-27T19:51:25.029Z,97632.97
2022-08-27T19:53:51.962Z,97639.72
2022-08-27T19:56:18.906Z,97635.22
2022-08-27T19:58:46.068Z,97632.69
2022-08-27T20:01:13.134Z,97622.81
2022-08-27T20:03:40.282Z,97629.00
2022-08-27T20:06:07.434Z,97628.50
2022-08-27T20:08:34.347Z,97623.50
2022-08-27T20:11:01.624Z,97620.88
2022-08-27T20:13:32.916Z,97619.81
2022-08-27T20:16:00.537Z,97625.53
2022-08-27T20:18:27.605Z,97623.37
2022-08-27T20:20:54.720Z,97641.38
2022-08-27T20:23:21.695Z,97637.66
2022-08-27T20:25:48.962Z,97648.09
2022-08-27T20:28:38.341Z,97644.25
2022-08-27T20:31:02.876Z,97643.38
2022-08-27T20:33:29.853Z,97648.44
2022-08-27T20:35:58.715Z,97648.19
2022-08-27T20:38:26.123Z,97651.00
2022-08-27T20:40:53.047Z,97662.09
2022-08-27T20:43:19.994Z,97651.19
2022-08-27T20:45:47.064Z,97653.06
2022-08-27T20:48:14.202Z,97647.06
2022-08-27T20:50:41.163Z,97651.91
2022-08-27T20:53:08.157Z,97642.41
2022-08-27T20:55:35.313Z,97652.41
2022-08-27T20:58:20.944Z,97654.50
2022-08-27T21:00:52.075Z,97664.72
2022-08-27T21:03:19.220Z,97668.84
2022-08-27T21:05:48.615Z,97679.72
2022-08-27T21:08:19.689Z,97680.12
2022-08-27T21:10:48.623Z,97677.06
2022-08-27T21:13:16.425Z,97680.03
2022-08-27T21:15:43.359Z,97673.31
2022-08-27T21:18:11.100Z,97671.81
2022-08-27T21:20:38.394Z,97679.75
2022-08-27T21:23:05.405Z,97683.47
2022-08-27T21:25:32.360Z,97681.25
2022-08-27T21:28:00.492Z,97689.84
2022-08-27T21:30:27.643Z,97679.03
2022-08-27T21:32:58.005Z,97678.50
2022-08-27T21:35:27.650Z,97681.88
2022-08-27T21:37:55.708Z,97681.63
2022-08-27T21:40:23.200Z,97678.91
2022-08-27T21:42:50.300Z,97694.25
2022-08-27T21:45:19.726Z,97734.75
2022-08-27T21:47:47.711Z,97765.38
2022-08-27T21:50:14.720Z,97751.44
2022-08-27T21:52:41.699Z,97785.50
2022-08-27T21:55:09.599Z,97769.66
2022-08-27T21:57:36.561Z,97804.16
2022-08-27T22:00:16.551Z,97838.84
2022-08-27T22:02:43.501Z,97840.81
2022-08-27T22:05:10.410Z,97824.84
2022-08-27T22:07:37.363Z,97807.56
2022-08-27T22:10:05.736Z,97823.91
2022-08-27T22:12:32.675Z,97805.94
2022-08-27T22:14:59.690Z,97797.03
2022-08-27T22:17:26.792Z,97793.56
2022-08-27T22:19:53.703Z,97805.72
2022-08-27T22:22:20.675Z,97804.50
2022-08-27T22:24:47.672Z,97779.44
2022-08-27T22:27:14.765Z,97796.44
2022-08-27T22:29:41.735Z,97785.34
2022-08-27T22:32:08.649Z,97766.91
2022-08-27T22:34:35.834Z,97771.34
2022-08-27T22:37:03.437Z,97774.41
2022-08-27T22:39:30.937Z,97760.87
2022-08-27T22:41:58.160Z,97750.84
2022-08-27T22:44:29.482Z,97741.69
2022-08-27T22:46:57.531Z,97754.50
2022-08-27T22:49:24.627Z,97745.50
2022-08-27T22:51:51.626Z,97740.66
2022-08-27T22:54:19.034Z,97731.38
2022-08-27T22:56:45.986Z,97734.34
2022-08-27T22:59:13.027Z,97728.25
2022-08-27T23:01:40.277Z,97712.63
2022-08-27T23:04:07.376Z,97710.19
2022-08-27T23:06:35.090Z,97707.03
2022-08-27T23:09:02.135Z,97692.75
2022-08-27T23:11:32.033Z,97711.34
2022-08-27T23:13:59.815Z,97702.91
2022-08-27T23:16:27.564Z,97696.12
2022-08-27T23:18:54.881Z,97712.56
2022-08-27T23:21:21.771Z,97715.31
2022-08-27T23:23:48.780Z,97717.56
2022-08-27T23:26:34.268Z,97722.59
2022-08-27T23:29:01.189Z,97712.72
2022-08-27T23:31:28.272Z,97713.53
2022-08-27T23:33:56.156Z,97706.78
2022-08-27T23:36:23.366Z,97723.63
2022-08-27T23:38:50.309Z,97727.84
2022-08-27T23:41:17.298Z,97734.91
2022-08-27T23:43:45.143Z,97742.09
2022-08-27T23:46:12.315Z,97736.34
2022-08-27T23:48:39.583Z,97730.44
2022-08-27T23:51:07.792Z,97733.44
2022-08-27T23:53:35.781Z,97732.47
2022-08-27T23:56:02.907Z,97733.12
2022-08-27T23:58:29.820Z,97732.75
